sensor_id;sensor_type;location;lat;lon;timestamp;pressure;altitude;pressure_sealevel;temperature;humidity
71559;BME280;59382;43.852;25.952;2023-04-01T00:01:32;100270.41;;;15.02;49.19
71559;BME280;59382;43.852;25.952;2023-04-01T00:03:57;100275.72;;;14.92;49.36
71559;BME280;59382;43.852;25.952;2023-04-01T00:06:23;100265.22;;;14.79;49.79
71559;BME280;59382;43.852;25.952;2023-04-01T00:08:49;100242.25;;;14.70;49.88
71559;BME280;59382;43.852;25.952;2023-04-01T00:11:16;100264.53;;;14.72;49.97
71559;BME280;59382;43.852;25.952;2023-04-01T00:13:42;100245.88;;;14.59;50.17
71559;BME280;59382;43.852;25.952;2023-04-01T00:16:08;100238.16;;;14.51;50.21
71559;BME280;59382;43.852;25.952;2023-04-01T00:18:34;100240.38;;;14.54;50.51
71559;BME280;59382;43.852;25.952;2023-04-01T00:20:59;100234.63;;;14.50;50.21
71559;BME280;59382;43.852;25.952;2023-04-01T00:23:25;100242.19;;;14.65;50.31
71559;BME280;59382;43.852;25.952;2023-04-01T00:25:51;100241.69;;;14.68;50.24
71559;BME280;59382;43.852;25.952;2023-04-01T00:28:18;100235.75;;;14.71;50.09
71559;BME280;59382;43.852;25.952;2023-04-01T00:30:46;100225.13;;;14.69;50.17
71559;BME280;59382;43.852;25.952;2023-04-01T00:33:11;100222.03;;;14.61;49.93
71559;BME280;59382;43.852;25.952;2023-04-01T00:35:37;100220.94;;;14.62;50.11
71559;BME280;59382;43.852;25.952;2023-04-01T00:38:04;100217.91;;;14.58;50.35
71559;BME280;59382;43.852;25.952;2023-04-01T00:40:35;100213.81;;;14.56;50.34
71559;BME280;59382;43.852;25.952;2023-04-01T00:43:01;100227.22;;;14.62;50.16
71559;BME280;59382;43.852;25.952;2023-04-01T00:45:28;100221.78;;;14.62;50.31
71559;BME280;59382;43.852;25.952;2023-04-01T00:47:55;100196.13;;;14.53;50.19
71559;BME280;59382;43.852;25.952;2023-04-01T00:50:24;100184.78;;;14.56;50.09
71559;BME280;59382;43.852;25.952;2023-04-01T00:52:50;100190.50;;;14.60;50.16
71559;BME280;59382;43.852;25.952;2023-04-01T00:55:18;100181.81;;;14.58;49.94
71559;BME280;59382;43.852;25.952;2023-04-01T00:57:49;100187.63;;;14.66;49.99
71559;BME280;59382;43.852;25.952;2023-04-01T01:00:16;100171.25;;;14.61;49.76
71559;BME280;59382;43.852;25.952;2023-04-01T01:02:44;100182.44;;;14.65;50.09
71559;BME280;59382;43.852;25.952;2023-04-01T01:05:15;100178.84;;;14.59;50.34
71559;BME280;59382;43.852;25.952;2023-04-01T01:10:30;100179.00;;;14.53;51.02
71559;BME280;59382;43.852;25.952;2023-04-01T01:13:22;100178.91;;;14.48;51.27
71559;BME280;59382;43.852;25.952;2023-04-01T01:16:06;100166.44;;;14.47;51.24
71559;BME280;59382;43.852;25.952;2023-04-01T01:18:35;100174.66;;;14.52;50.92
71559;BME280;59382;43.852;25.952;2023-04-01T01:37:05;100131.16;;;14.14;51.76
71559;BME280;59382;43.852;25.952;2023-04-01T01:39:34;100134.53;;;14.21;51.37
71559;BME280;59382;43.852;25.952;2023-04-01T01:42:04;100133.00;;;14.25;51.78
71559;BME280;59382;43.852;25.952;2023-04-01T01:44:32;100131.38;;;14.24;51.79
71559;BME280;59382;43.852;25.952;2023-04-01T01:47:00;100126.41;;;14.21;51.54
71559;BME280;59382;43.852;25.952;2023-04-01T01:49:27;100131.91;;;14.26;52.27
71559;BME280;59382;43.852;25.952;2023-04-01T01:51:55;100119.81;;;14.17;51.86
71559;BME280;59382;43.852;25.952;2023-04-01T01:54:21;100123.94;;;14.19;51.89
71559;BME280;59382;43.852;25.952;2023-04-01T01:56:49;100120.97;;;14.21;51.79
71559;BME280;59382;43.852;25.952;2023-04-01T01:59:18;100113.88;;;14.20;51.72
71559;BME280;59382;43.852;25.952;2023-04-01T02:01:49;100099.59;;;14.08;51.72
71559;BME280;59382;43.852;25.952;2023-04-01T02:04:17;100108.81;;;14.07;52.25
71559;BME280;59382;43.852;25.952;2023-04-01T02:06:49;100092.38;;;13.97;52.36
71559;BME280;59382;43.852;25.952;2023-04-01T02:09:19;100107.19;;;14.06;52.33
71559;BME280;59382;43.852;25.952;2023-04-01T02:12:00;100107.69;;;14.03;52.56
71559;BME280;59382;43.852;25.952;2023-04-01T02:14:38;100107.53;;;13.93;52.68
71559;BME280;59382;43.852;25.952;2023-04-01T02:17:25;100088.44;;;13.71;52.90
71559;BME280;59382;43.852;25.952;2023-04-01T02:20:02;100087.13;;;13.57;53.44
71559;BME280;59382;43.852;25.952;2023-04-01T02:22:39;100104.31;;;13.62;53.30
71559;BME280;59382;43.852;25.952;2023-04-01T02:25:15;100102.91;;;13.60;53.38
71559;BME280;59382;43.852;25.952;2023-04-01T02:27:43;100086.81;;;13.53;53.67
71559;BME280;59382;43.852;25.952;2023-04-01T02:30:10;100088.03;;;13.62;53.17
71559;BME280;59382;43.852;25.952;2023-04-01T02:32:37;100076.03;;;13.58;53.04
71559;BME280;59382;43.852;25.952;2023-04-01T02:35:09;100086.97;;;13.63;53.10
71559;BME280;59382;43.852;25.952;2023-04-01T02:37:36;100055.75;;;13.44;53.18
71559;BME280;59382;43.852;25.952;2023-04-01T02:40:07;100082.03;;;13.60;53.07
71559;BME280;59382;43.852;25.952;2023-04-01T02:42:33;100070.69;;;13.63;52.75
71559;BME280;59382;43.852;25.952;2023-04-01T02:44:59;100083.19;;;13.64;52.75
71559;BME280;59382;43.852;25.952;2023-04-01T02:47:25;100060.84;;;13.57;52.75
71559;BME280;59382;43.852;25.952;2023-04-01T02:49:50;100068.09;;;13.68;52.77
71559;BME280;59382;43.852;25.952;2023-04-01T02:52:16;100061.19;;;13.61;52.75
71559;BME280;59382;43.852;25.952;2023-04-01T02:54:41;100053.13;;;13.49;52.60
71559;BME280;59382;43.852;25.952;2023-04-01T02:57:07;100059.53;;;13.43;52.75
71559;BME280;59382;43.852;25.952;2023-04-01T02:59:32;100054.28;;;13.37;52.85
71559;BME280;59382;43.852;25.952;2023-04-01T03:01:58;100057.38;;;13.45;52.83
71559;BME280;59382;43.852;25.952;2023-04-01T03:04:23;100063.41;;;13.47;52.99
71559;BME280;59382;43.852;25.952;2023-04-01T03:06:49;100041.31;;;13.39;52.91
71559;BME280;59382;43.852;25.952;2023-04-01T03:09:15;100051.47;;;13.48;53.09
71559;BME280;59382;43.852;25.952;2023-04-01T03:11:41;100054.78;;;13.50;52.96
71559;BME280;59382;43.852;25.952;2023-04-01T03:14:06;100055.34;;;13.52;52.86
71559;BME280;59382;43.852;25.952;2023-04-01T03:16:32;100056.91;;;13.48;53.17
71559;BME280;59382;43.852;25.952;2023-04-01T03:18:58;100064.47;;;13.46;53.10
71559;BME280;59382;43.852;25.952;2023-04-01T03:21:25;100054.13;;;13.43;53.37
71559;BME280;59382;43.852;25.952;2023-04-01T03:23:51;100051.66;;;13.42;53.06
71559;BME280;59382;43.852;25.952;2023-04-01T03:26:17;100050.06;;;13.29;53.38
71559;BME280;59382;43.852;25.952;2023-04-01T03:28:43;100059.28;;;13.28;53.17
71559;BME280;59382;43.852;25.952;2023-04-01T03:31:09;100055.41;;;13.24;53.46
71559;BME280;59382;43.852;25.952;2023-04-01T03:33:35;100045.28;;;13.20;53.25
71559;BME280;59382;43.852;25.952;2023-04-01T03:36:00;100053.09;;;13.16;53.33
71559;BME280;59382;43.852;25.952;2023-04-01T03:38:26;100049.69;;;13.09;53.38
71559;BME280;59382;43.852;25.952;2023-04-01T03:40:52;100059.66;;;13.20;53.60
71559;BME280;59382;43.852;25.952;2023-04-01T03:43:17;100043.66;;;13.19;53.05
71559;BME280;59382;43.852;25.952;2023-04-01T03:45:49;100048.44;;;13.28;52.97
71559;BME280;59382;43.852;25.952;2023-04-01T03:48:15;100049.00;;;13.30;53.07
71559;BME280;59382;43.852;25.952;2023-04-01T03:50:41;100043.56;;;13.30;52.94
71559;BME280;59382;43.852;25.952;2023-04-01T03:53:07;100037.66;;;13.33;52.87
71559;BME280;59382;43.852;25.952;2023-04-01T03:55:33;100048.22;;;13.46;52.54
71559;BME280;59382;43.852;25.952;2023-04-01T03:57:59;100041.72;;;13.47;52.81
71559;BME280;59382;43.852;25.952;2023-04-01T04:00:27;100051.81;;;13.52;52.44
71559;BME280;59382;43.852;25.952;2023-04-01T04:02:52;100044.25;;;13.54;52.38
71559;BME280;59382;43.852;25.952;2023-04-01T04:05:18;100027.66;;;13.50;52.37
71559;BME280;59382;43.852;25.952;2023-04-01T04:07:43;100021.75;;;13.53;52.32
71559;BME280;59382;43.852;25.952;2023-04-01T04:10:09;100027.31;;;13.63;52.21
71559;BME280;59382;43.852;25.952;2023-04-01T04:12:34;100016.97;;;13.60;52.43
71559;BME280;59382;43.852;25.952;2023-04-01T04:15:00;100023.03;;;13.67;52.38
71559;BME280;59382;43.852;25.952;2023-04-01T04:17:25;100019.28;;;13.68;51.95
71559;BME280;59382;43.852;25.952;2023-04-01T04:19:51;100019.59;;;13.72;52.36
71559;BME280;59382;43.852;25.952;2023-04-01T04:22:16;100016.63;;;13.73;51.96
71559;BME280;59382;43.852;25.952;2023-04-01T04:24:42;99998.41;;;13.69;51.98
71559;BME280;59382;43.852;25.952;2023-04-01T04:27:07;100004.78;;;13.79;51.88
71559;BME280;59382;43.852;25.952;2023-04-01T04:29:33;100014.63;;;13.85;52.05
71559;BME280;59382;43.852;25.952;2023-04-01T04:31:58;100023.28;;;13.82;51.73
71559;BME280;59382;43.852;25.952;2023-04-01T04:34:24;100016.81;;;13.67;52.48
71559;BME280;59382;43.852;25.952;2023-04-01T04:36:49;100010.72;;;13.60;52.15
71559;BME280;59382;43.852;25.952;2023-04-01T04:39:15;100016.72;;;13.62;52.55
71559;BME280;59382;43.852;25.952;2023-04-01T04:41:41;100024.22;;;13.71;52.41
71559;BME280;59382;43.852;25.952;2023-04-01T04:44:07;100025.34;;;13.75;52.20
71559;BME280;59382;43.852;25.952;2023-04-01T04:46:32;100020.56;;;13.82;52.59
71559;BME280;59382;43.852;25.952;2023-04-01T04:48:58;100002.16;;;13.84;52.04
71559;BME280;59382;43.852;25.952;2023-04-01T04:51:24;100021.88;;;13.97;51.94
71559;BME280;59382;43.852;25.952;2023-04-01T04:53:50;99999.59;;;13.95;51.88
71559;BME280;59382;43.852;25.952;2023-04-01T04:56:22;100016.56;;;14.07;51.82
71559;BME280;59382;43.852;25.952;2023-04-01T04:58:48;100008.34;;;14.02;51.41
71559;BME280;59382;43.852;25.952;2023-04-01T05:01:15;100012.16;;;14.01;51.75
71559;BME280;59382;43.852;25.952;2023-04-01T05:03:41;100007.81;;;14.00;51.64
71559;BME280;59382;43.852;25.952;2023-04-01T05:06:09;100008.94;;;14.04;51.79
71559;BME280;59382;43.852;25.952;2023-04-01T05:08:35;99998.03;;;13.99;51.43
71559;BME280;59382;43.852;25.952;2023-04-01T05:11:02;99988.47;;;13.96;51.52
71559;BME280;59382;43.852;25.952;2023-04-01T05:13:28;99997.34;;;14.08;51.75
71559;BME280;59382;43.852;25.952;2023-04-01T05:15:54;100008.81;;;14.15;51.45
71559;BME280;59382;43.852;25.952;2023-04-01T05:18:21;99994.03;;;14.06;51.23
71559;BME280;59382;43.852;25.952;2023-04-01T05:20:51;99984.19;;;14.00;51.47
71559;BME280;59382;43.852;25.952;2023-04-01T05:23:17;100004.09;;;14.06;51.24
71559;BME280;59382;43.852;25.952;2023-04-01T05:25:43;100001.41;;;14.11;51.39
71559;BME280;59382;43.852;25.952;2023-04-01T05:28:10;100003.59;;;14.09;51.94
71559;BME280;59382;43.852;25.952;2023-04-01T05:30:36;100002.34;;;14.16;52.16
71559;BME280;59382;43.852;25.952;2023-04-01T05:33:01;100010.22;;;14.18;52.42
71559;BME280;59382;43.852;25.952;2023-04-01T05:35:27;100004.84;;;14.23;52.39
71559;BME280;59382;43.852;25.952;2023-04-01T05:37:52;100005.69;;;14.23;52.48
71559;BME280;59382;43.852;25.952;2023-04-01T05:40:18;100003.63;;;14.30;52.57
71559;BME280;59382;43.852;25.952;2023-04-01T05:42:43;99993.50;;;14.26;52.27
71559;BME280;59382;43.852;25.952;2023-04-01T05:45:09;99993.50;;;14.26;52.45
71559;BME280;59382;43.852;25.952;2023-04-01T05:47:35;99996.31;;;14.31;52.73
71559;BME280;59382;43.852;25.952;2023-04-01T05:50:00;99997.50;;;14.40;52.85
71559;BME280;59382;43.852;25.952;2023-04-01T05:52:26;99982.91;;;14.46;52.28
71559;BME280;59382;43.852;25.952;2023-04-01T05:54:51;99978.19;;;14.63;52.05
71559;BME280;59382;43.852;25.952;2023-04-01T05:57:17;99974.53;;;14.74;51.84
71559;BME280;59382;43.852;25.952;2023-04-01T05:59:42;99977.34;;;14.84;51.62
71559;BME280;59382;43.852;25.952;2023-04-01T06:02:09;99970.63;;;14.91;51.19
71559;BME280;59382;43.852;25.952;2023-04-01T06:04:39;99954.38;;;14.96;51.00
71559;BME280;59382;43.852;25.952;2023-04-01T06:07:11;99961.28;;;15.09;50.71
71559;BME280;59382;43.852;25.952;2023-04-01T06:09:40;99943.03;;;15.04;50.62
71559;BME280;59382;43.852;25.952;2023-04-01T06:15:03;99958.34;;;15.15;50.43
71559;BME280;59382;43.852;25.952;2023-04-01T06:20:28;99966.06;;;15.28;50.24
71559;BME280;59382;43.852;25.952;2023-04-01T06:23:22;99971.75;;;15.22;50.17
71559;BME280;59382;43.852;25.952;2023-04-01T06:26:14;99972.78;;;15.21;50.42
71559;BME280;59382;43.852;25.952;2023-04-01T06:44:55;99982.09;;;15.25;51.15
71559;BME280;59382;43.852;25.952;2023-04-01T06:58:04;99975.75;;;15.14;51.13
71559;BME280;59382;43.852;25.952;2023-04-01T07:00:36;99967.22;;;15.06;51.02
71559;BME280;59382;43.852;25.952;2023-04-01T07:03:21;99970.47;;;15.03;51.41
71559;BME280;59382;43.852;25.952;2023-04-01T07:05:49;99976.47;;;15.05;51.57
71559;BME280;59382;43.852;25.952;2023-04-01T07:08:23;99961.72;;;14.96;51.39
71559;BME280;59382;43.852;25.952;2023-04-01T07:10:55;99978.66;;;15.08;51.57
71559;BME280;59382;43.852;25.952;2023-04-01T07:13:46;99974.84;;;15.04;51.68
71559;BME280;59382;43.852;25.952;2023-04-01T07:19:10;99983.59;;;15.11;51.56
71559;BME280;59382;43.852;25.952;2023-04-01T07:21:54;99981.97;;;15.10;51.97
71559;BME280;59382;43.852;25.952;2023-04-01T07:24:49;99988.75;;;15.12;52.11
71559;BME280;59382;43.852;25.952;2023-04-01T07:27:15;99979.25;;;15.10;51.67
71559;BME280;59382;43.852;25.952;2023-04-01T07:29:41;99987.91;;;15.07;51.87
71559;BME280;59382;43.852;25.952;2023-04-01T07:53:14;99989.22;;;15.36;52.50
71559;BME280;59382;43.852;25.952;2023-04-01T07:59:09;99954.56;;;15.48;52.31
71559;BME280;59382;43.852;25.952;2023-04-01T08:01:44;99952.25;;;15.66;51.92
71559;BME280;59382;43.852;25.952;2023-04-01T08:04:23;99962.34;;;15.76;51.66
71559;BME280;59382;43.852;25.952;2023-04-01T08:07:08;99979.28;;;15.83;51.72
71559;BME280;59382;43.852;25.952;2023-04-01T08:10:11;99957.53;;;15.83;51.69
71559;BME280;59382;43.852;25.952;2023-04-01T08:15:49;99953.75;;;15.94;51.36
71559;BME280;59382;43.852;25.952;2023-04-01T08:21:15;99943.16;;;15.98;51.11
71559;BME280;59382;43.852;25.952;2023-04-01T08:23:46;99948.63;;;16.03;50.98
71559;BME280;59382;43.852;25.952;2023-04-01T08:26:59;99949.41;;;15.98;50.70
71559;BME280;59382;43.852;25.952;2023-04-01T08:29:22;99931.97;;;15.94;50.66
71559;BME280;59382;43.852;25.952;2023-04-01T08:32:03;99945.91;;;16.03;50.41
71559;BME280;59382;43.852;25.952;2023-04-01T08:34:34;99950.00;;;16.10;50.41
71559;BME280;59382;43.852;25.952;2023-04-01T08:37:08;99948.41;;;16.14;50.06
71559;BME280;59382;43.852;25.952;2023-04-01T08:39:44;99944.59;;;16.15;50.09
71559;BME280;59382;43.852;25.952;2023-04-01T08:42:22;99954.44;;;16.21;50.06
71559;BME280;59382;43.852;25.952;2023-04-01T08:53:25;99930.50;;;16.38;49.63
71559;BME280;59382;43.852;25.952;2023-04-01T08:56:14;99938.78;;;16.48;49.36
71559;BME280;59382;43.852;25.952;2023-04-01T09:04:41;99932.25;;;16.59;49.21
71559;BME280;59382;43.852;25.952;2023-04-01T09:15:34;99923.81;;;16.66;48.96
71559;BME280;59382;43.852;25.952;2023-04-01T09:21:14;99921.63;;;16.73;48.98
71559;BME280;59382;43.852;25.952;2023-04-01T09:35:39;99937.75;;;16.99;49.35
71559;BME280;59382;43.852;25.952;2023-04-01T09:44:03;99917.84;;;17.09;49.39
71559;BME280;59382;43.852;25.952;2023-04-01T10:48:30;99860.75;;;17.78;47.09
71559;BME280;59382;43.852;25.952;2023-04-01T11:05:48;99857.03;;;17.48;47.73
71559;BME280;59382;43.852;25.952;2023-04-01T11:17:02;99835.75;;;17.45;47.42
71559;BME280;59382;43.852;25.952;2023-04-01T11:34:09;99815.53;;;17.56;47.84
71559;BME280;59382;43.852;25.952;2023-04-01T11:43:04;99789.00;;;17.77;47.51
71559;BME280;59382;43.852;25.952;2023-04-01T11:46:23;99798.91;;;17.58;47.89
71559;BME280;59382;43.852;25.952;2023-04-01T12:06:35;99776.47;;;18.20;47.30
71559;BME280;59382;43.852;25.952;2023-04-01T12:09:36;99785.09;;;18.32;47.16
71559;BME280;59382;43.852;25.952;2023-04-01T12:25:43;99767.28;;;18.44;47.07
71559;BME280;59382;43.852;25.952;2023-04-01T12:33:51;99758.13;;;18.25;47.54
71559;BME280;59382;43.852;25.952;2023-04-01T12:55:46;99768.22;;;18.25;47.61
71559;BME280;59382;43.852;25.952;2023-04-01T13:44:30;99761.34;;;17.94;48.76
71559;BME280;59382;43.852;25.952;2023-04-01T13:58:49;99759.44;;;17.89;48.73
71559;BME280;59382;43.852;25.952;2023-04-01T14:01:54;99748.06;;;17.77;48.77
71559;BME280;59382;43.852;25.952;2023-04-01T14:04:36;99761.97;;;17.81;48.94
71559;BME280;59382;43.852;25.952;2023-04-01T14:13:07;99775.69;;;17.66;49.40
71559;BME280;59382;43.852;25.952;2023-04-01T14:16:14;99767.22;;;17.67;49.52
71559;BME280;59382;43.852;25.952;2023-04-01T14:18:58;99759.31;;;17.66;49.40
71559;BME280;59382;43.852;25.952;2023-04-01T14:21:46;99764.78;;;17.66;49.79
71559;BME280;59382;43.852;25.952;2023-04-01T14:30:03;99749.56;;;17.49;50.37
71559;BME280;59382;43.852;25.952;2023-04-01T14:42:06;99701.09;;;17.26;50.95
71559;BME280;59382;43.852;25.952;2023-04-01T14:47:46;99712.00;;;17.26;51.20
71559;BME280;59382;43.852;25.952;2023-04-01T14:50:16;99718.53;;;17.25;51.34
71559;BME280;59382;43.852;25.952;2023-04-01T14:52:57;99709.84;;;17.18;51.46
71559;BME280;59382;43.852;25.952;2023-04-01T14:55:34;99712.03;;;17.16;51.67
71559;BME280;59382;43.852;25.952;2023-04-01T15:00:59;99710.97;;;17.12;52.07
71559;BME280;59382;43.852;25.952;2023-04-01T15:04:19;99713.97;;;17.11;52.35
71559;BME280;59382;43.852;25.952;2023-04-01T15:12:58;99672.38;;;16.70;53.56
71559;BME280;59382;43.852;25.952;2023-04-01T15:18:08;99711.31;;;16.76;53.64
71559;BME280;59382;43.852;25.952;2023-04-01T15:20:47;99728.50;;;16.76;53.90
71559;BME280;59382;43.852;25.952;2023-04-01T15:31:31;99738.88;;;16.49;55.33
71559;BME280;59382;43.852;25.952;2023-04-01T15:40:44;99747.00;;;16.24;55.86
71559;BME280;59382;43.852;25.952;2023-04-01T15:54:38;99736.13;;;16.29;56.62
71559;BME280;59382;43.852;25.952;2023-04-01T16:08:43;99761.38;;;16.00;57.21
71559;BME280;59382;43.852;25.952;2023-04-01T16:11:22;99767.63;;;15.95;57.75
71559;BME280;59382;43.852;25.952;2023-04-01T16:16:42;99770.94;;;16.02;57.76
71559;BME280;59382;43.852;25.952;2023-04-01T16:21:50;99773.66;;;16.07;58.12
71559;BME280;59382;43.852;25.952;2023-04-01T16:24:33;99784.00;;;16.10;58.00
71559;BME280;59382;43.852;25.952;2023-04-01T16:27:33;99796.53;;;16.16;58.45
71559;BME280;59382;43.852;25.952;2023-04-01T16:32:44;99791.06;;;16.01;58.16
71559;BME280;59382;43.852;25.952;2023-04-01T16:40:49;99795.44;;;16.12;58.81
71559;BME280;59382;43.852;25.952;2023-04-01T16:43:35;99780.22;;;16.11;58.48
71559;BME280;59382;43.852;25.952;2023-04-01T16:46:14;99785.63;;;16.16;58.34
71559;BME280;59382;43.852;25.952;2023-04-01T16:51:52;99776.09;;;16.09;58.76
71559;BME280;59382;43.852;25.952;2023-04-01T17:02:46;99761.66;;;15.83;59.72
71559;BME280;59382;43.852;25.952;2023-04-01T17:05:15;99756.75;;;15.85;59.37
71559;BME280;59382;43.852;25.952;2023-04-01T17:18:34;99778.53;;;16.00;59.78
71559;BME280;59382;43.852;25.952;2023-04-01T17:21:21;99771.44;;;15.89;59.88
71559;BME280;59382;43.852;25.952;2023-04-01T17:23:52;99779.06;;;15.87;59.75
71559;BME280;59382;43.852;25.952;2023-04-01T17:34:42;99779.03;;;15.82;60.76
71559;BME280;59382;43.852;25.952;2023-04-01T17:45:53;99780.66;;;15.78;60.77
71559;BME280;59382;43.852;25.952;2023-04-01T17:48:36;99788.03;;;15.83;60.80
71559;BME280;59382;43.852;25.952;2023-04-01T17:51:16;99781.22;;;15.85;60.69
71559;BME280;59382;43.852;25.952;2023-04-01T17:56:20;99780.69;;;15.88;60.63
71559;BME280;59382;43.852;25.952;2023-04-01T17:59:26;99775.25;;;15.88;60.92
71559;BME280;59382;43.852;25.952;2023-04-01T18:10:29;99785.03;;;15.84;60.50
71559;BME280;59382;43.852;25.952;2023-04-01T18:15:39;99791.03;;;15.91;60.83
71559;BME280;59382;43.852;25.952;2023-04-01T18:23:47;99763.50;;;15.77;61.20
71559;BME280;59382;43.852;25.952;2023-04-01T18:26:37;99791.56;;;15.83;61.38
71559;BME280;59382;43.852;25.952;2023-04-01T18:31:55;99799.66;;;15.63;61.54
71559;BME280;59382;43.852;25.952;2023-04-01T18:40:35;99820.25;;;15.49;61.77
71559;BME280;59382;43.852;25.952;2023-04-01T18:43:30;99832.09;;;15.33;62.67
71559;BME280;59382;43.852;25.952;2023-04-01T18:49:21;99835.69;;;15.02;63.01
71559;BME280;59382;43.852;25.952;2023-04-01T18:52:08;99843.84;;;15.02;62.90
71559;BME280;59382;43.852;25.952;2023-04-01T19:01:00;99856.00;;;14.58;64.43
71559;BME280;59382;43.852;25.952;2023-04-01T19:06:01;99891.13;;;14.43;64.88
71559;BME280;59382;43.852;25.952;2023-04-01T19:08:38;99869.84;;;14.30;64.80
71559;BME280;59382;43.852;25.952;2023-04-01T19:11:15;99870.34;;;14.27;65.43
71559;BME280;59382;43.852;25.952;2023-04-01T19:13:58;99879.34;;;14.32;65.04
71559;BME280;59382;43.852;25.952;2023-04-01T19:16:38;99883.50;;;14.40;65.11
71559;BME280;59382;43.852;25.952;2023-04-01T19:27:49;99888.69;;;14.41;65.07
71559;BME280;59382;43.852;25.952;2023-04-01T19:35:54;99878.13;;;14.45;65.34
71559;BME280;59382;43.852;25.952;2023-04-01T19:39:04;99890.91;;;14.49;65.50
71559;BME280;59382;43.852;25.952;2023-04-01T19:41:38;99890.63;;;14.46;65.17
71559;BME280;59382;43.852;25.952;2023-04-01T19:44:34;99878.84;;;14.35;66.34
71559;BME280;59382;43.852;25.952;2023-04-01T19:52:37;99885.66;;;14.16;66.94
71559;BME280;59382;43.852;25.952;2023-04-01T19:57:47;99892.41;;;14.14;67.75
71559;BME280;59382;43.852;25.952;2023-04-01T20:00:29;99882.44;;;13.98;68.06
71559;BME280;59382;43.852;25.952;2023-04-01T20:06:00;99905.84;;;14.04;68.81
71559;BME280;59382;43.852;25.952;2023-04-01T20:14:40;99909.53;;;13.93;69.14
71559;BME280;59382;43.852;25.952;2023-04-01T20:22:34;99907.44;;;14.00;68.53
71559;BME280;59382;43.852;25.952;2023-04-01T20:28:14;99901.44;;;13.98;68.38
71559;BME280;59382;43.852;25.952;2023-04-01T20:33:42;99913.75;;;13.83;68.75
71559;BME280;59382;43.852;25.952;2023-04-01T20:36:26;99911.53;;;13.80;68.18
71559;BME280;59382;43.852;25.952;2023-04-01T20:47:27;99925.31;;;13.57;67.43
71559;BME280;59382;43.852;25.952;2023-04-01T20:52:51;99913.13;;;13.38;66.78
71559;BME280;59382;43.852;25.952;2023-04-01T21:12:46;99937.00;;;13.41;65.47
71559;BME280;59382;43.852;25.952;2023-04-01T21:18:49;99932.56;;;13.35;65.16
71559;BME280;59382;43.852;25.952;2023-04-01T21:32:16;99956.22;;;13.23;64.58
71559;BME280;59382;43.852;25.952;2023-04-01T21:34:48;99941.78;;;13.18;64.36
71559;BME280;59382;43.852;25.952;2023-04-01T21:37:33;99960.00;;;13.22;63.97
71559;BME280;59382;43.852;25.952;2023-04-01T21:40:11;99964.94;;;13.25;63.76
71559;BME280;59382;43.852;25.952;2023-04-01T21:43:05;99959.34;;;13.15;64.07
71559;BME280;59382;43.852;25.952;2023-04-01T22:04:34;99958.94;;;12.79;64.20
71559;BME280;59382;43.852;25.952;2023-04-01T22:07:15;99953.53;;;12.79;64.22
71559;BME280;59382;43.852;25.952;2023-04-01T22:12:38;99939.38;;;12.60;64.36
71559;BME280;59382;43.852;25.952;2023-04-01T22:17:47;99960.75;;;12.73;64.13
71559;BME280;59382;43.852;25.952;2023-04-01T22:28:27;99959.50;;;12.64;64.56
71559;BME280;59382;43.852;25.952;2023-04-01T22:31:05;99964.81;;;12.59;64.67
71559;BME280;59382;43.852;25.952;2023-04-01T22:36:18;99969.16;;;12.60;64.51
71559;BME280;59382;43.852;25.952;2023-04-01T22:39:04;99953.13;;;12.42;65.40
71559;BME280;59382;43.852;25.952;2023-04-01T22:41:41;99963.00;;;12.48;65.06
71559;BME280;59382;43.852;25.952;2023-04-01T22:50:16;99975.75;;;12.36;65.67
71559;BME280;59382;43.852;25.952;2023-04-01T22:52:45;99952.72;;;12.22;66.07
71559;BME280;59382;43.852;25.952;2023-04-01T22:55:19;99958.81;;;12.29;65.59
71559;BME280;59382;43.852;25.952;2023-04-01T22:58:09;99954.94;;;12.25;66.41
71559;BME280;59382;43.852;25.952;2023-04-01T23:00:48;99966.84;;;12.24;66.19
71559;BME280;59382;43.852;25.952;2023-04-01T23:03:22;99960.72;;;12.17;65.83
71559;BME280;59382;43.852;25.952;2023-04-01T23:05:56;99966.13;;;12.17;66.87
71559;BME280;59382;43.852;25.952;2023-04-01T23:11:23;99964.97;;;12.13;66.58
71559;BME280;59382;43.852;25.952;2023-04-01T23:16:59;99961.44;;;12.24;66.34
71559;BME280;59382;43.852;25.952;2023-04-01T23:19:44;99956.97;;;12.18;66.15
71559;BME280;59382;43.852;25.952;2023-04-01T23:24:51;99971.53;;;12.17;66.07
71559;BME280;59382;43.852;25.952;2023-04-01T23:27:31;99974.72;;;12.14;66.35
71559;BME280;59382;43.852;25.952;2023-04-01T23:30:00;99959.56;;;12.13;66.07
71559;BME280;59382;43.852;25.952;2023-04-01T23:32:26;99972.72;;;12.21;65.94
71559;BME280;59382;43.852;25.952;2023-04-01T23:34:58;99971.91;;;12.21;66.36
71559;BME280;59382;43.852;25.952;2023-04-01T23:37:26;99976.47;;;12.20;66.19
71559;BME280;59382;43.852;25.952;2023-04-01T23:39:54;99972.84;;;12.15;66.26
71559;BME280;59382;43.852;25.952;2023-04-01T23:42:27;99976.28;;;12.10;66.65
71559;BME280;59382;43.852;25.952;2023-04-01T23:44:58;99967.38;;;11.98;66.96
71559;BME280;59382;43.852;25.952;2023-04-01T23:47:30;99972.88;;;12.03;67.20
71559;BME280;59382;43.852;25.952;2023-04-01T23:49:58;99953.84;;;11.98;66.94
71559;BME280;59382;43.852;25.952;2023-04-01T23:52:27;99960.78;;;12.06;67.34
71559;BME280;59382;43.852;25.952;2023-04-01T23:54:56;99955.59;;;12.04;67.17
71559;BME280;59382;43.852;25.952;2023-04-01T23:57:30;99963.81;;;12.09;66.90
